Shady Beach, South Dakota
Current Conditions -  °F | °C
As of 1:34 PM on Thursday 27 Nov 2014 (Local Time) from KVVV Reporting Station
Clear Clear  
Wind Chill: -22°   Ceiling: Unl
Heat Index: -16°   Visibility: 10mi
Dew Point: -22°   Wind: 6mph
Humidity: 61%   Direction: 150°SSE
Pressure: 30.39"   Gusts: NA
Location:  45.3641°N, 96.6682°W
Report Text: KVVV 271934Z AUTO 15005KT 10SM CLR M16/M22 A3039 RMK AO2
Loading
Personal Weather Stations






























Interactive Weather Map New forecast layout! Learn more

10-Day Weather Forecast

Advertisements
Track Severe Weather on mobile